createdAt,value
2023-04-01T00:01:21.139Z,2.53
2023-04-01T00:03:48.504Z,4.22
2023-04-01T00:06:17.593Z,3.75
2023-04-01T00:08:45.510Z,3.78
2023-04-01T00:11:12.522Z,2.70
2023-04-01T00:13:39.386Z,4.00
2023-04-01T00:16:17.766Z,4.18
2023-04-01T00:18:51.249Z,3.22
2023-04-01T00:21:18.592Z,5.30
2023-04-01T00:23:45.389Z,3.13
2023-04-01T00:26:15.419Z,2.63
2023-04-01T00:28:43.008Z,4.05
2023-04-01T00:31:10.885Z,2.95
2023-04-01T00:33:38.256Z,2.92
2023-04-01T00:36:16.370Z,3.45
2023-04-01T00:38:43.850Z,5.00
2023-04-01T00:41:15.509Z,3.15
2023-04-01T00:43:44.118Z,3.58
2023-04-01T00:46:11.335Z,2.58
2023-04-01T00:48:42.749Z,6.88
2023-04-01T00:51:21.955Z,2.70
2023-04-01T00:53:50.919Z,3.15
2023-04-01T00:56:24.002Z,2.78
2023-04-01T00:58:54.650Z,4.53
2023-04-01T01:01:23.286Z,4.25
2023-04-01T01:03:50.230Z,3.75
2023-04-01T01:06:51.304Z,3.70
2023-04-01T01:09:30.561Z,4.07
2023-04-01T01:12:20.518Z,5.05
2023-04-01T01:14:59.668Z,2.33
2023-04-01T01:17:40.408Z,3.15
2023-04-01T01:20:28.348Z,2.65
2023-04-01T01:23:21.383Z,4.70
2023-04-01T01:26:03.311Z,3.05
2023-04-01T01:28:50.885Z,4.18
2023-04-01T01:31:53.065Z,2.03
2023-04-01T01:34:25.934Z,2.55
2023-04-01T01:36:57.968Z,2.67
2023-04-01T01:39:29.169Z,5.47
2023-04-01T01:41:58.634Z,4.13
2023-04-01T01:44:28.090Z,2.53
2023-04-01T01:46:54.899Z,2.00
2023-04-01T01:49:22.398Z,3.30
2023-04-01T01:51:49.521Z,4.45
2023-04-01T01:54:18.233Z,4.95
2023-04-01T01:56:48.906Z,1.58
2023-04-01T01:59:17.614Z,4.93
2023-04-01T02:01:48.069Z,4.10
2023-04-01T02:04:16.569Z,2.38
2023-04-01T02:06:49.235Z,2.85
2023-04-01T02:09:16.752Z,3.70
2023-04-01T02:12:14.111Z,3.40
2023-04-01T02:14:51.149Z,4.22
2023-04-01T02:17:20.810Z,2.72
2023-04-01T02:20:16.116Z,2.90
2023-04-01T02:22:51.560Z,3.53
2023-04-01T02:25:25.155Z,3.20
2023-04-01T02:27:52.963Z,1.52
2023-04-01T02:30:20.645Z,3.53
2023-04-01T02:32:47.924Z,3.70
2023-04-01T02:35:17.411Z,4.05
2023-04-01T02:37:45.671Z,2.85
2023-04-01T02:40:15.672Z,1.63
2023-04-01T02:42:42.549Z,3.80
2023-04-01T02:45:10.802Z,2.95
2023-04-01T02:47:37.771Z,4.22
2023-04-01T02:50:05.413Z,2.85
2023-04-01T02:52:33.464Z,3.65
2023-04-01T02:55:02.018Z,3.47
2023-04-01T02:57:29.428Z,4.38
2023-04-01T02:59:56.520Z,1.95
2023-04-01T03:02:23.399Z,3.78
2023-04-01T03:04:50.236Z,4.13
2023-04-01T03:07:17.398Z,2.17
2023-04-01T03:09:44.243Z,4.30
2023-04-01T03:12:11.198Z,3.05
2023-04-01T03:14:47.189Z,6.07
2023-04-01T03:17:13.980Z,3.35
2023-04-01T03:19:41.032Z,2.72
2023-04-01T03:22:12.250Z,3.63
2023-04-01T03:24:39.089Z,3.35
2023-04-01T03:27:06.036Z,3.13
2023-04-01T03:29:32.897Z,2.42
2023-04-01T03:32:00.170Z,4.60
2023-04-01T03:34:27.361Z,4.20
2023-04-01T03:36:54.163Z,2.00
2023-04-01T03:39:21.114Z,4.35
2023-04-01T03:41:47.985Z,4.03
2023-04-01T03:44:15.020Z,3.92
2023-04-01T03:46:42.574Z,4.70
2023-04-01T03:49:12.801Z,8.98
2023-04-01T03:51:41.132Z,5.78
2023-04-01T03:54:08.334Z,5.07
2023-04-01T03:56:35.376Z,4.10
2023-04-01T03:59:05.050Z,5.85
2023-04-01T04:01:32.583Z,3.13
2023-04-01T04:04:00.441Z,4.10
2023-04-01T04:06:28.296Z,5.43
2023-04-01T04:08:55.333Z,3.22
2023-04-01T04:11:23.098Z,6.57
2023-04-01T04:13:53.415Z,4.93
2023-04-01T04:16:21.134Z,4.45
2023-04-01T04:18:54.476Z,6.15
2023-04-01T04:21:21.329Z,5.80
2023-04-01T04:23:48.199Z,3.80
2023-04-01T04:26:17.324Z,4.68
2023-04-01T04:28:49.580Z,5.82
2023-04-01T04:31:22.813Z,4.85
2023-04-01T04:33:51.342Z,3.92
2023-04-01T04:36:19.108Z,3.83
2023-04-01T04:38:46.964Z,3.35
2023-04-01T04:41:19.081Z,6.28
2023-04-01T04:43:56.485Z,3.28
2023-04-01T04:46:24.746Z,3.22
2023-04-01T04:48:57.880Z,3.13
2023-04-01T04:51:24.953Z,5.10
2023-04-01T04:53:53.023Z,3.58
2023-04-01T04:56:23.602Z,3.67
2023-04-01T04:59:00.356Z,3.08
2023-04-01T05:01:39.637Z,2.35
2023-04-01T05:04:06.514Z,8.27
2023-04-01T05:06:33.386Z,4.57
2023-04-01T05:09:00.173Z,4.18
2023-04-01T05:11:27.532Z,3.75
2023-04-01T05:13:55.771Z,6.65
2023-04-01T05:16:22.583Z,3.45
2023-04-01T05:18:49.414Z,7.13
2023-04-01T05:21:17.284Z,3.50
2023-04-01T05:23:44.897Z,5.40
2023-04-01T05:26:14.468Z,7.90
2023-04-01T05:28:42.200Z,3.25
2023-04-01T05:31:09.216Z,5.93
2023-04-01T05:33:39.152Z,8.48
2023-04-01T05:36:14.368Z,3.85
2023-04-01T05:38:43.557Z,5.65
2023-04-01T05:41:12.315Z,4.95
2023-04-01T05:43:43.449Z,4.90
2023-04-01T05:46:29.572Z,4.28
2023-04-01T05:49:14.941Z,6.95
2023-04-01T05:51:42.476Z,4.68
2023-04-01T05:54:09.473Z,5.45
2023-04-01T05:56:37.080Z,3.55
2023-04-01T05:59:04.306Z,6.30
2023-04-01T06:01:31.174Z,7.35
2023-04-01T06:03:58.371Z,8.10
2023-04-01T06:06:28.610Z,8.98
2023-04-01T06:09:12.358Z,5.13
2023-04-01T06:11:54.490Z,8.25
2023-04-01T06:14:49.247Z,5.32
2023-04-01T06:17:44.318Z,9.98
2023-04-01T06:20:16.013Z,6.30
2023-04-01T06:23:20.550Z,8.98
2023-04-01T06:26:06.319Z,6.90
2023-04-01T06:28:42.901Z,6.32
2023-04-01T06:31:33.258Z,7.25
2023-04-01T06:34:25.129Z,5.45
2023-04-01T06:37:20.981Z,7.03
2023-04-01T06:40:18.838Z,5.00
2023-04-01T06:43:06.626Z,5.82
2023-04-01T06:46:12.513Z,4.95
2023-04-01T06:49:26.534Z,7.20
2023-04-01T06:52:35.429Z,4.88
2023-04-01T06:55:39.358Z,4.18
2023-04-01T06:58:54.505Z,8.25
2023-04-01T07:01:42.766Z,3.55
2023-04-01T07:04:16.753Z,5.80
2023-04-01T07:06:51.469Z,7.35
2023-04-01T07:09:22.901Z,3.65
2023-04-01T07:12:37.752Z,5.25
2023-04-01T07:15:27.722Z,5.22
2023-04-01T07:18:05.056Z,4.07
2023-04-01T07:20:34.077Z,6.80
2023-04-01T07:23:12.153Z,9.40
2023-04-01T07:25:57.246Z,6.03
2023-04-01T07:28:35.396Z,5.57
2023-04-01T07:32:02.359Z,5.07
2023-04-01T07:34:41.282Z,5.05
2023-04-01T07:37:15.720Z,5.28
2023-04-01T07:40:19.282Z,4.97
2023-04-01T07:42:58.499Z,6.55
2023-04-01T07:45:48.674Z,5.78
2023-04-01T07:48:27.798Z,5.15
2023-04-01T07:51:16.587Z,7.15
2023-04-01T07:53:49.168Z,5.95
2023-04-01T07:56:31.944Z,5.65
2023-04-01T07:59:08.161Z,6.63
2023-04-01T08:02:33.173Z,5.95
2023-04-01T08:05:19.481Z,9.60
2023-04-01T08:07:55.507Z,3.70
2023-04-01T08:11:12.776Z,5.43
2023-04-01T08:14:21.624Z,6.00
2023-04-01T08:17:17.241Z,5.85
2023-04-01T08:20:15.737Z,2.97
2023-04-01T08:22:57.634Z,4.97
2023-04-01T08:25:32.551Z,5.28
2023-04-01T08:28:06.137Z,5.88
2023-04-01T08:30:44.597Z,6.60
2023-04-01T08:33:17.543Z,8.48
2023-04-01T08:35:53.355Z,5.10
2023-04-01T08:38:26.432Z,3.03
2023-04-01T08:41:01.712Z,3.53
2023-04-01T08:44:10.630Z,2.50
2023-04-01T08:46:54.483Z,6.97
2023-04-01T08:49:32.775Z,4.90
2023-04-01T08:52:27.482Z,5.65
2023-04-01T08:55:06.496Z,3.53
2023-04-01T08:58:33.027Z,5.95
2023-04-01T09:01:42.600Z,4.47
2023-04-01T09:04:43.703Z,3.28
2023-04-01T09:07:30.251Z,8.23
2023-04-01T09:10:19.399Z,3.08
2023-04-01T09:13:21.517Z,3.08
2023-04-01T09:16:05.945Z,3.85
2023-04-01T09:18:35.806Z,2.47
2023-04-01T09:21:24.395Z,5.05
2023-04-01T09:24:15.756Z,4.35
2023-04-01T09:26:57.659Z,5.70
2023-04-01T09:29:51.612Z,6.95
2023-04-01T09:32:47.868Z,6.90
2023-04-01T09:35:36.974Z,4.25
2023-04-01T09:38:10.018Z,5.03
2023-04-01T09:40:59.746Z,5.65
2023-04-01T09:44:05.680Z,4.60
2023-04-01T09:47:07.697Z,3.17
2023-04-01T09:49:46.667Z,2.47
2023-04-01T09:52:19.660Z,3.72
2023-04-01T09:55:21.105Z,3.67
2023-04-01T09:58:09.944Z,4.45
2023-04-01T10:01:11.019Z,7.50
2023-04-01T10:04:05.531Z,5.53
2023-04-01T10:06:54.590Z,5.70
2023-04-01T10:09:58.662Z,6.75
2023-04-01T10:12:38.606Z,7.38
2023-04-01T10:15:31.485Z,7.32
2023-04-01T10:18:28.980Z,9.10
2023-04-01T10:21:05.845Z,9.95
2023-04-01T10:23:50.746Z,10.77
2023-04-01T10:26:51.294Z,10.77
2023-04-01T10:30:03.662Z,9.05
2023-04-01T10:32:44.767Z,7.82
2023-04-01T10:35:27.225Z,19.88
2023-04-01T10:37:57.058Z,8.00
2023-04-01T10:40:50.714Z,8.10
2023-04-01T10:43:58.619Z,7.50
2023-04-01T10:46:58.508Z,10.23
2023-04-01T10:49:36.960Z,9.27
2023-04-01T10:52:13.397Z,7.63
2023-04-01T10:55:21.922Z,8.70
2023-04-01T10:58:41.508Z,8.18
2023-04-01T11:01:43.412Z,11.18
2023-04-01T11:04:58.038Z,10.05
2023-04-01T11:08:21.212Z,10.60
2023-04-01T11:11:40.749Z,10.20
2023-04-01T11:14:30.904Z,10.70
2023-04-01T11:17:18.846Z,9.10
2023-04-01T11:20:22.702Z,9.52
2023-04-01T11:23:24.987Z,9.35
2023-04-01T11:26:30.453Z,9.25
2023-04-01T11:29:21.898Z,9.27
2023-04-01T11:32:00.663Z,9.77
2023-04-01T11:34:44.388Z,8.60
2023-04-01T11:37:14.335Z,12.48
2023-04-01T11:40:20.288Z,9.13
2023-04-01T11:43:33.756Z,10.40
2023-04-01T11:46:49.883Z,9.48
2023-04-01T11:49:35.472Z,9.32
2023-04-01T11:52:34.877Z,9.25
2023-04-01T11:55:28.604Z,9.27
2023-04-01T11:58:20.798Z,9.70
2023-04-01T12:01:21.059Z,9.20
2023-04-01T12:04:25.011Z,9.15
2023-04-01T12:07:01.129Z,8.23
2023-04-01T12:09:57.255Z,9.15
2023-04-01T12:12:32.160Z,7.38
2023-04-01T12:15:09.572Z,8.90
2023-04-01T12:17:57.983Z,6.50
2023-04-01T12:20:38.656Z,7.15
2023-04-01T12:23:31.055Z,6.47
2023-04-01T12:26:21.617Z,5.57
2023-04-01T12:28:51.405Z,5.70
2023-04-01T12:31:51.828Z,5.18
2023-04-01T12:35:03.710Z,6.78
2023-04-01T12:38:09.582Z,7.45
2023-04-01T12:40:47.385Z,9.93
2023-04-01T12:43:23.394Z,9.10
2023-04-01T12:46:02.439Z,7.38
2023-04-01T12:48:58.738Z,8.70
2023-04-01T12:51:35.165Z,9.93
2023-04-01T12:54:14.023Z,10.98
2023-04-01T12:57:14.884Z,9.98
2023-04-01T12:59:55.679Z,9.85
2023-04-01T13:02:54.420Z,10.23
2023-04-01T13:05:36.782Z,9.00
2023-04-01T13:08:19.598Z,8.98
2023-04-01T13:11:05.245Z,8.50
2023-04-01T13:13:45.203Z,7.63
2023-04-01T13:16:12.042Z,8.80
2023-04-01T13:18:41.927Z,6.38
2023-04-01T13:21:25.102Z,7.75
2023-04-01T13:24:04.100Z,8.07
2023-04-01T13:26:51.644Z,9.93
2023-04-01T13:29:28.593Z,10.50
2023-04-01T13:32:07.405Z,10.90
2023-04-01T13:34:59.217Z,12.60
2023-04-01T13:37:49.260Z,13.90
2023-04-01T13:40:27.531Z,11.77
2023-04-01T13:43:03.951Z,13.32
2023-04-01T13:46:03.867Z,11.70
2023-04-01T13:48:58.471Z,11.82
2023-04-01T13:51:53.485Z,12.05
2023-04-01T13:54:29.818Z,13.35
2023-04-01T13:57:14.941Z,11.88
2023-04-01T13:59:51.831Z,11.45
2023-04-01T14:02:41.760Z,13.38
2023-04-01T14:05:42.123Z,13.60
2023-04-01T14:08:34.684Z,12.77
2023-04-01T14:11:19.807Z,13.75
2023-04-01T14:14:19.779Z,12.80
2023-04-01T14:17:08.514Z,12.00
2023-04-01T14:19:41.093Z,11.07
2023-04-01T14:22:20.100Z,11.40
2023-04-01T14:25:16.265Z,9.77
2023-04-01T14:28:13.797Z,10.02
2023-04-01T14:30:49.508Z,10.23
2023-04-01T14:33:42.165Z,10.10
2023-04-01T14:36:41.458Z,11.27
2023-04-01T14:39:30.210Z,9.93
2023-04-01T14:42:11.887Z,10.13
2023-04-01T14:45:21.411Z,9.45
2023-04-01T14:47:51.705Z,9.70
2023-04-01T14:50:21.553Z,11.43
2023-04-01T14:53:10.853Z,10.27
2023-04-01T14:55:43.665Z,9.30
2023-04-01T14:58:16.012Z,8.13
2023-04-01T15:00:52.851Z,9.60
2023-04-01T15:03:58.208Z,8.30
2023-04-01T15:06:50.121Z,7.32
2023-04-01T15:09:40.130Z,9.98
2023-04-01T15:12:31.531Z,8.82
2023-04-01T15:15:04.324Z,6.93
2023-04-01T15:17:37.145Z,7.40
2023-04-01T15:20:27.301Z,6.28
2023-04-01T15:23:18.299Z,6.53
2023-04-01T15:26:19.577Z,7.88
2023-04-01T15:29:02.487Z,6.25
2023-04-01T15:31:36.159Z,7.60
2023-04-01T15:34:02.906Z,7.25
2023-04-01T15:36:35.986Z,8.38
2023-04-01T15:39:08.984Z,6.47
2023-04-01T15:41:36.204Z,7.78
2023-04-01T15:44:03.709Z,7.35
2023-04-01T15:46:46.356Z,7.18
2023-04-01T15:49:24.414Z,7.07
2023-04-01T15:52:16.435Z,8.48
2023-04-01T15:55:03.121Z,6.78
2023-04-01T15:57:32.280Z,7.20
2023-04-01T16:00:18.043Z,6.70
2023-04-01T16:03:02.507Z,7.63
2023-04-01T16:05:36.424Z,7.78
2023-04-01T16:08:29.965Z,6.75
2023-04-01T16:11:03.793Z,6.40
2023-04-01T16:13:50.384Z,6.35
2023-04-01T16:16:36.568Z,7.07
2023-04-01T16:19:25.263Z,7.03
2023-04-01T16:22:02.398Z,6.72
2023-04-01T16:24:56.352Z,9.07
2023-04-01T16:27:23.155Z,8.25
2023-04-01T16:29:54.613Z,9.30
2023-04-01T16:32:44.649Z,7.75
2023-04-01T16:35:26.294Z,8.32
2023-04-01T16:38:05.841Z,8.07
2023-04-01T16:40:43.613Z,7.55
2023-04-01T16:43:10.343Z,7.55
2023-04-01T16:46:22.454Z,6.97
2023-04-01T16:49:16.748Z,8.90
2023-04-01T16:52:07.149Z,5.55
2023-04-01T16:54:58.110Z,6.15
2023-04-01T16:57:36.941Z,8.23
2023-04-01T17:00:22.886Z,6.95
2023-04-01T17:03:28.042Z,8.23
2023-04-01T17:06:03.854Z,7.57
2023-04-01T17:08:35.998Z,6.70
2023-04-01T17:11:20.753Z,6.57
2023-04-01T17:13:51.242Z,6.00
2023-04-01T17:16:36.949Z,6.43
2023-04-01T17:19:12.817Z,5.85
2023-04-01T17:21:49.014Z,5.72
2023-04-01T17:24:43.434Z,6.30
2023-04-01T17:27:19.368Z,5.38
2023-04-01T17:30:04.702Z,6.65
2023-04-01T17:32:51.106Z,5.97
2023-04-01T17:35:23.756Z,4.38
2023-04-01T17:38:06.667Z,8.02
2023-04-01T17:40:45.691Z,5.28
2023-04-01T17:43:50.469Z,7.25
2023-04-01T17:46:26.564Z,6.78
2023-04-01T17:49:20.300Z,6.80
2023-04-01T17:52:09.418Z,9.18
2023-04-01T17:55:16.921Z,6.03
2023-04-01T17:58:04.844Z,7.35
2023-04-01T18:00:52.772Z,6.65
2023-04-01T18:03:26.754Z,8.00
2023-04-01T18:06:06.317Z,7.88
2023-04-01T18:09:02.417Z,6.93
2023-04-01T18:11:43.564Z,6.07
2023-04-01T18:14:21.378Z,5.15
2023-04-01T18:17:04.099Z,6.55
2023-04-01T18:20:03.472Z,6.53
2023-04-01T18:22:30.552Z,6.80
